createdAt,value
2019-03-04T00:01:05.420Z,61425.46
2019-03-04T00:03:31.653Z,61424.14
2019-03-04T00:05:58.087Z,61423.46
2019-03-04T00:08:24.316Z,61419.50
2019-03-04T00:10:50.571Z,61415.81
2019-03-04T00:13:16.788Z,61405.17
2019-03-04T00:15:43.039Z,61401.96
2019-03-04T00:18:09.279Z,61408.62
2019-03-04T00:20:35.527Z,61414.38
2019-03-04T00:23:01.766Z,61412.87
2019-03-04T00:25:27.995Z,61420.04
2019-03-04T00:27:54.225Z,61421.26
2019-03-04T00:30:20.468Z,61421.66
2019-03-04T00:32:46.697Z,61424.88
2019-03-04T00:35:13.050Z,61426.87
2019-03-04T00:37:39.264Z,61420.25
2019-03-04T00:40:46.810Z,61413.95
2019-03-04T00:43:13.046Z,61413.41
2019-03-04T00:45:39.300Z,61417.55
2019-03-04T00:48:05.527Z,61419.75
2019-03-04T00:50:31.789Z,61429.17
2019-03-04T00:52:58.010Z,61421.30
2019-03-04T00:55:24.248Z,61430.68
2019-03-04T00:57:50.478Z,61427.55
2019-03-04T01:00:36.462Z,61432.58
2019-03-04T01:05:39.896Z,61431.31
2019-03-04T01:08:06.113Z,61432.25
2019-03-04T01:10:32.354Z,61426.68
2019-03-04T01:12:58.583Z,61425.25
2019-03-04T01:15:24.823Z,61422.20
2019-03-04T01:18:32.362Z,61422.04
2019-03-04T01:20:58.611Z,61425.84
2019-03-04T01:23:24.841Z,61426.87
2019-03-04T01:25:51.078Z,61433.71
2019-03-04T01:28:17.310Z,61430.91
2019-03-04T01:30:43.567Z,61430.58
2019-03-04T01:33:09.811Z,61430.04
2019-03-04T01:35:36.038Z,61438.47
2019-03-04T01:38:02.284Z,61442.96
2019-03-04T01:40:28.511Z,61451.79
2019-03-04T01:42:54.755Z,61446.34
2019-03-04T01:45:20.981Z,61447.40
2019-03-04T01:47:47.215Z,61460.30
2019-03-04T01:53:13.943Z,61453.23
2019-03-04T01:55:40.171Z,61450.83
2019-03-04T01:58:06.416Z,61452.59
2019-03-04T02:00:32.648Z,61460.68
2019-03-04T02:02:58.893Z,61466.64
2019-03-04T02:05:25.223Z,61464.29
2019-03-04T02:07:51.462Z,61462.64
2019-03-04T02:10:59.016Z,61462.05
2019-03-04T02:13:25.238Z,61464.01
2019-03-04T02:15:51.468Z,61465.81
2019-03-04T02:18:17.715Z,61465.27
2019-03-04T02:20:43.952Z,61469.95
2019-03-04T02:23:29.936Z,61472.09
2019-03-04T02:29:10.057Z,61481.14
2019-03-04T02:31:36.286Z,61476.39
2019-03-04T02:34:02.529Z,61473.85
2019-03-04T02:36:28.761Z,61477.47
2019-03-04T02:38:55.000Z,61476.39
2019-03-04T02:41:21.259Z,61472.79
2019-03-04T02:43:47.501Z,61475.33
2019-03-04T02:46:13.731Z,61482.95
2019-03-04T02:48:39.979Z,61477.12
2019-03-04T02:51:06.216Z,61483.09
2019-03-04T02:53:32.477Z,61478.20
2019-03-04T02:55:58.704Z,61491.43
2019-03-04T02:58:24.947Z,61494.84
2019-03-04T03:00:51.187Z,61485.77
2019-03-04T03:03:17.420Z,61481.96
2019-03-04T03:05:43.650Z,61481.23
2019-03-04T03:08:09.898Z,61483.42
2019-03-04T03:10:36.128Z,61477.47
2019-03-04T03:13:02.378Z,61483.63
2019-03-04T03:15:28.614Z,61491.43
2019-03-04T03:17:54.852Z,61475.12
2019-03-04T03:20:21.087Z,61474.06
2019-03-04T03:22:47.322Z,61472.44
2019-03-04T03:25:54.896Z,61473.71
2019-03-04T03:28:21.131Z,61476.79
2019-03-04T03:30:47.367Z,61478.20
2019-03-04T03:33:13.628Z,61478.74
2019-03-04T03:35:39.853Z,61475.33
2019-03-04T03:38:06.103Z,61471.71
2019-03-04T03:40:32.344Z,61479.33
2019-03-04T03:42:58.681Z,61476.06
2019-03-04T03:45:24.929Z,61479.14
2019-03-04T03:47:51.153Z,61479.61
2019-03-04T03:50:17.444Z,61480.83
2019-03-04T03:55:57.920Z,61484.80
2019-03-04T03:58:25.469Z,61500.55
2019-03-04T04:00:52.300Z,61490.35
2019-03-04T04:03:18.532Z,61507.59
2019-03-04T04:05:44.781Z,61490.56
2019-03-04T04:08:11.047Z,61491.83
2019-03-04T04:10:37.289Z,61490.02
2019-03-04T04:13:03.530Z,61490.02
2019-03-04T04:15:29.767Z,61490.75
2019-03-04T04:17:56.004Z,61494.21
2019-03-04T04:20:22.272Z,61496.37
2019-03-04T04:22:48.501Z,61494.70
2019-03-04T04:27:48.401Z,61491.97
2019-03-04T04:30:55.945Z,61497.78
2019-03-04T04:33:22.168Z,61491.43
2019-03-04T04:35:48.414Z,61493.78
2019-03-04T04:38:14.649Z,61507.02
2019-03-04T04:40:40.893Z,61494.11
2019-03-04T04:43:07.127Z,61490.89
2019-03-04T04:45:33.366Z,61500.13
2019-03-04T04:47:59.598Z,61490.02
2019-03-04T04:51:07.151Z,61483.72
2019-03-04T04:53:33.380Z,61490.80
2019-03-04T04:55:59.626Z,61494.56
2019-03-04T04:58:25.867Z,61495.05
2019-03-04T05:01:41.050Z,61495.52
2019-03-04T05:04:07.301Z,61506.90
2019-03-04T05:06:33.544Z,61505.39
2019-03-04T05:08:59.771Z,61519.36
2019-03-04T05:11:26.019Z,61504.85
2019-03-04T05:13:52.256Z,61509.60
2019-03-04T05:16:18.503Z,61514.09
2019-03-04T05:18:44.739Z,61504.66
2019-03-04T05:21:10.988Z,61510.28
2019-03-04T05:23:37.215Z,61500.50
2019-03-04T05:26:03.459Z,61502.90
2019-03-04T05:28:29.690Z,61500.03
2019-03-04T05:30:55.942Z,61501.82
2019-03-04T05:33:22.177Z,61507.06
2019-03-04T05:35:48.412Z,61504.85
2019-03-04T05:38:14.651Z,61505.39
2019-03-04T05:40:40.882Z,61509.34
2019-03-04T05:43:07.152Z,61516.96
2019-03-04T05:45:33.381Z,61509.34
2019-03-04T05:47:59.637Z,61507.20
2019-03-04T05:50:25.871Z,61506.26
2019-03-04T05:52:52.111Z,61512.23
2019-03-04T05:55:18.342Z,61512.72
2019-03-04T05:57:44.589Z,61513.99
2019-03-04T06:03:24.454Z,61517.75
2019-03-04T06:05:50.683Z,61526.05
2019-03-04T06:08:16.938Z,61537.63
2019-03-04T06:10:43.171Z,61523.12
2019-03-04T06:13:09.413Z,61522.20
2019-03-04T06:15:35.648Z,61524.34
2019-03-04T06:18:01.896Z,61527.75
2019-03-04T06:20:28.133Z,61531.37
2019-03-04T06:22:54.373Z,61537.13
2019-03-04T06:25:40.353Z,61533.32
2019-03-04T06:28:06.597Z,61533.51
2019-03-04T06:30:32.819Z,61533.46
2019-03-04T06:32:59.059Z,61537.62
2019-03-04T06:35:25.288Z,61541.57
2019-03-04T06:37:51.549Z,61544.26
2019-03-04T06:43:31.258Z,61554.72
2019-03-04T06:45:57.490Z,61558.48
2019-03-04T06:48:23.760Z,61554.81
2019-03-04T06:57:12.189Z,61562.25
2019-03-04T07:00:19.739Z,61563.26
2019-03-04T07:02:45.966Z,61579.54
2019-03-04T07:05:51.717Z,61575.63
2019-03-04T07:11:18.499Z,61577.18
2019-03-04T07:13:44.736Z,61582.57
2019-03-04T07:16:10.983Z,61591.02
2019-03-04T07:18:37.217Z,61590.09
2019-03-04T07:21:03.479Z,61592.21
2019-03-04T07:23:29.700Z,61591.68
2019-03-04T07:25:55.950Z,61593.70
2019-03-04T07:28:22.204Z,61589.55
2019-03-04T07:30:48.460Z,61587.20
2019-03-04T07:36:02.395Z,61592.76
2019-03-04T07:39:08.127Z,61609.57
2019-03-04T07:41:34.379Z,61607.71
2019-03-04T07:44:00.633Z,61611.82
2019-03-04T07:46:26.879Z,61616.46
2019-03-04T07:48:53.120Z,61625.99
2019-03-04T07:51:19.490Z,61633.14
2019-03-04T07:53:46.629Z,61651.59
2019-03-04T07:56:13.870Z,61645.45
2019-03-04T07:58:59.852Z,61657.73
2019-03-04T08:01:26.100Z,61652.09
2019-03-04T08:03:52.331Z,61670.06
2019-03-04T08:06:18.587Z,61690.20
2019-03-04T08:09:24.320Z,61706.90
2019-03-04T08:12:30.061Z,61718.84
2019-03-04T08:14:56.300Z,61739.89
2019-03-04T08:17:22.565Z,61754.16
2019-03-04T08:19:48.809Z,61771.45
2019-03-04T08:22:15.068Z,61783.50
2019-03-04T08:24:41.307Z,61789.03
2019-03-04T08:27:07.540Z,61793.89
2019-03-04T08:29:33.791Z,61805.05
2019-03-04T08:32:00.031Z,61812.00
2019-03-04T08:34:31.120Z,61814.90
2019-03-04T08:36:54.427Z,61834.29
2019-03-04T08:39:22.907Z,61842.73
2019-03-04T08:41:48.814Z,61850.91
2019-03-04T08:44:15.075Z,61864.85
2019-03-04T08:46:41.304Z,61860.89
2019-03-04T08:49:07.537Z,61870.64
2019-03-04T08:51:33.776Z,61877.21
2019-03-04T08:54:00.025Z,61891.23
2019-03-04T08:56:26.254Z,61902.89
2019-03-04T08:58:52.496Z,61912.46
2019-03-04T09:01:18.723Z,61924.04
2019-03-04T09:03:44.967Z,61923.79
2019-03-04T09:06:11.190Z,61938.61
2019-03-04T09:08:37.439Z,61950.61
2019-03-04T09:11:03.775Z,61970.84
2019-03-04T09:13:30.024Z,61960.20
2019-03-04T09:15:56.349Z,61964.80
2019-03-04T09:18:22.616Z,61978.30
2019-03-04T09:20:48.839Z,61975.94
2019-03-04T09:23:15.076Z,61984.57
2019-03-04T09:28:54.744Z,62004.42
2019-03-04T09:31:20.994Z,62013.84
2019-03-04T09:33:47.252Z,62022.82
2019-03-04T09:36:13.494Z,62025.73
2019-03-04T09:38:39.716Z,62030.39
2019-03-04T09:41:05.959Z,62023.11
2019-03-04T09:43:32.191Z,62033.63
2019-03-04T09:45:58.429Z,62037.27
2019-03-04T09:48:24.643Z,62027.77
2019-03-04T09:50:50.879Z,62031.22
2019-03-04T09:53:17.115Z,61977.59
2019-03-04T09:55:43.350Z,62037.70
2019-03-04T09:58:09.569Z,62056.44
2019-03-04T10:00:57.378Z,62060.18
2019-03-04T10:07:16.430Z,62073.07
2019-03-04T10:10:23.983Z,62070.43
2019-03-04T10:16:43.065Z,62104.55
2019-03-04T10:19:48.814Z,62132.67
2019-03-04T10:22:56.396Z,62113.14
2019-03-04T10:29:08.830Z,62139.42
2019-03-04T10:38:05.974Z,62160.06
2019-03-04T10:41:11.705Z,62167.96
2019-03-04T10:44:19.282Z,62158.97
2019-03-04T10:47:05.265Z,62186.21
2019-03-04T10:52:25.428Z,62195.41
2019-03-04T10:54:51.686Z,62178.91
2019-03-04T10:57:17.918Z,62178.37
2019-03-04T10:59:44.167Z,62180.87
2019-03-04T11:02:10.395Z,62191.98
2019-03-04T11:04:36.671Z,62202.86
2019-03-04T11:07:02.970Z,62203.54
2019-03-04T11:09:29.259Z,62220.84
2019-03-04T11:11:55.483Z,62214.14
2019-03-04T11:14:21.721Z,62202.73
2019-03-04T11:16:47.939Z,62212.86
2019-03-04T11:19:14.175Z,62231.20
2019-03-04T11:21:40.408Z,62209.42
2019-03-04T11:26:54.263Z,62223.01
2019-03-04T11:29:20.479Z,62234.67
2019-03-04T11:31:46.714Z,62237.98
2019-03-04T11:34:12.951Z,62244.53
2019-03-04T11:36:39.190Z,62248.25
2019-03-04T11:39:46.755Z,62253.82
2019-03-04T11:42:13.028Z,62259.57
2019-03-04T11:44:39.277Z,62260.31
2019-03-04T11:47:05.532Z,62243.31
2019-03-04T11:49:31.765Z,62242.31
2019-03-04T11:51:58.009Z,62233.45
2019-03-04T11:54:24.256Z,62235.06
2019-03-04T11:56:50.512Z,62245.68
2019-03-04T11:59:16.768Z,62233.35
2019-03-04T12:04:20.394Z,62235.05
2019-03-04T12:06:46.648Z,62222.74
2019-03-04T12:11:46.631Z,62212.25
2019-03-04T12:14:12.853Z,62222.87
2019-03-04T12:16:39.095Z,62225.58
2019-03-04T12:19:05.450Z,62228.21
2019-03-04T12:21:31.699Z,62247.45
2019-03-04T12:27:05.303Z,62250.70
2019-03-04T12:29:31.554Z,62248.87
2019-03-04T12:34:31.581Z,62249.41
2019-03-04T12:36:57.820Z,62241.29
2019-03-04T12:39:24.038Z,62228.02
2019-03-04T12:41:50.288Z,62231.27
2019-03-04T12:44:16.513Z,62246.23
2019-03-04T12:46:42.733Z,62246.23
2019-03-04T12:49:08.972Z,62250.63
2019-03-04T12:51:35.203Z,62237.37
2019-03-04T12:54:01.453Z,62231.55
2019-03-04T12:56:27.673Z,62244.79
2019-03-04T12:58:53.902Z,62242.64
2019-03-04T13:01:20.122Z,62240.68
2019-03-04T13:03:46.370Z,62231.87
2019-03-04T13:06:12.602Z,62210.44
2019-03-04T13:08:38.836Z,62193.39
2019-03-04T13:11:05.072Z,62184.20
2019-03-04T13:13:31.316Z,62190.15
2019-03-04T13:16:19.158Z,62188.79
2019-03-04T13:18:45.491Z,62177.70
2019-03-04T13:21:11.724Z,62195.41
2019-03-04T13:23:38.011Z,62185.94
2019-03-04T13:26:04.251Z,62176.08
2019-03-04T13:28:30.503Z,62176.69
2019-03-04T13:30:56.728Z,62165.07
2019-03-04T13:33:22.968Z,62169.64
2019-03-04T13:35:49.244Z,62165.52
2019-03-04T13:38:15.472Z,62178.29
2019-03-04T13:41:03.272Z,62159.29
2019-03-04T13:43:29.512Z,62167.70
2019-03-04T13:45:56.042Z,62178.17
2019-03-04T13:48:22.293Z,62169.98
2019-03-04T13:50:48.593Z,62160.66
2019-03-04T13:53:14.938Z,62144.50
2019-03-04T13:55:41.163Z,62144.00
2019-03-04T13:58:07.392Z,62123.19
2019-03-04T14:01:14.934Z,62101.94
2019-03-04T14:03:41.226Z,62127.48
2019-03-04T14:06:07.466Z,62131.52
2019-03-04T14:08:33.697Z,62132.67
2019-03-04T14:10:59.951Z,62127.13
2019-03-04T14:13:26.187Z,62126.52
2019-03-04T14:16:33.730Z,62124.08
2019-03-04T14:19:00.163Z,62128.88
2019-03-04T14:21:26.400Z,62107.40
2019-03-04T14:23:52.629Z,62107.40
2019-03-04T14:26:18.883Z,62111.18
2019-03-04T14:28:45.099Z,62124.55
2019-03-04T14:31:11.351Z,62120.76
2019-03-04T14:33:37.568Z,62098.00
2019-03-04T14:36:03.814Z,62090.90
2019-03-04T14:38:30.035Z,62099.56
2019-03-04T14:40:56.267Z,62096.86
2019-03-04T14:43:22.497Z,62080.04
2019-03-04T14:45:48.730Z,62076.99
2019-03-04T14:48:14.953Z,62076.41
2019-03-04T14:50:41.185Z,62080.44
2019-03-04T14:53:07.410Z,62070.25
2019-03-04T14:56:22.138Z,62067.62
2019-03-04T15:01:23.366Z,62069.95
2019-03-04T15:03:49.616Z,62051.61
2019-03-04T15:06:15.892Z,62046.33
2019-03-04T15:08:42.128Z,62054.91
2019-03-04T15:11:08.368Z,62051.45
2019-03-04T15:13:34.598Z,62051.67
2019-03-04T15:16:04.258Z,62056.79
2019-03-04T15:18:29.009Z,62050.99
2019-03-04T15:20:55.252Z,62040.46
2019-03-04T15:23:21.480Z,62048.62
2019-03-04T15:25:47.834Z,62056.44
2019-03-04T15:28:33.821Z,62048.33
2019-03-04T15:31:01.177Z,62034.11
2019-03-04T15:33:27.428Z,62029.11
2019-03-04T15:35:53.659Z,62034.70
2019-03-04T15:38:19.906Z,62014.52
2019-03-04T15:40:46.141Z,62017.30
2019-03-04T15:43:12.376Z,62006.09
2019-03-04T15:51:27.180Z,61972.41
2019-03-04T15:53:53.415Z,61951.11
2019-03-04T15:56:19.648Z,61935.12
2019-03-04T15:58:45.894Z,61933.23
2019-03-04T16:04:13.247Z,61905.12
2019-03-04T16:06:39.467Z,61896.91
2019-03-04T16:09:47.013Z,61864.61
2019-03-04T16:14:47.227Z,61853.00
2019-03-04T16:17:13.468Z,61835.73
2019-03-04T16:19:39.700Z,61812.79
2019-03-04T16:22:05.940Z,61796.23
2019-03-04T16:24:32.168Z,61777.71
2019-03-04T16:27:39.713Z,61763.93
2019-03-04T16:30:25.808Z,61745.75
2019-03-04T16:32:52.063Z,61723.29
2019-03-04T16:38:25.667Z,61704.32
2019-03-04T16:40:51.921Z,61671.33
2019-03-04T16:43:18.182Z,61665.66
2019-03-04T16:45:44.658Z,61639.38
2019-03-04T16:48:10.875Z,61620.03
2019-03-04T16:50:56.881Z,61604.29
2019-03-04T16:54:04.433Z,61590.73
2019-03-04T16:56:30.667Z,61574.81
2019-03-04T16:58:56.924Z,61550.72
2019-03-04T17:01:23.151Z,61540.30
2019-03-04T17:03:49.399Z,61531.37
2019-03-04T17:06:15.632Z,61512.91
2019-03-04T17:08:41.885Z,61493.78
2019-03-04T17:11:08.119Z,61468.00
2019-03-04T17:13:34.376Z,61442.04
2019-03-04T17:19:14.027Z,61394.51
2019-03-04T17:21:40.280Z,61375.99
2019-03-04T17:24:47.833Z,61361.65
2019-03-04T17:27:14.065Z,61339.29
2019-03-04T17:29:40.312Z,61309.99
2019-03-04T17:35:33.651Z,61291.63
2019-03-04T17:37:59.892Z,61280.53
2019-03-04T17:41:07.445Z,61260.16
2019-03-04T17:43:33.697Z,61240.50
2019-03-04T17:45:59.956Z,61217.36
2019-03-04T17:48:26.184Z,61204.50
2019-03-04T17:50:52.431Z,61188.64
2019-03-04T17:53:18.663Z,61161.13
2019-03-04T17:58:38.804Z,61129.37
2019-03-04T18:01:05.052Z,61123.18
2019-03-04T18:03:31.286Z,61114.97
2019-03-04T18:05:57.535Z,61104.86
2019-03-04T18:08:23.762Z,61099.85
2019-03-04T18:10:50.012Z,61097.72
2019-03-04T18:13:16.247Z,61086.63
2019-03-04T18:16:23.797Z,61074.14
2019-03-04T18:18:50.031Z,61078.30
2019-03-04T18:21:16.271Z,61072.37
2019-03-04T18:23:42.515Z,61054.98
2019-03-04T18:26:50.066Z,61031.77
2019-03-04T18:39:09.996Z,60994.24
2019-03-04T18:45:16.858Z,60977.05
2019-03-04T18:48:24.420Z,60952.94
2019-03-04T18:50:50.662Z,60940.70
2019-03-04T18:53:16.896Z,60923.27
2019-03-04T18:55:43.135Z,60915.27
2019-03-04T18:58:09.363Z,60908.87
2019-03-04T19:00:35.611Z,60905.37
2019-03-04T19:03:01.845Z,60896.98
2019-03-04T19:05:28.104Z,60891.47
2019-03-04T19:07:54.322Z,60885.74
2019-03-04T19:10:20.564Z,60880.95
2019-03-04T19:12:46.797Z,60880.84
2019-03-04T19:18:06.699Z,60860.16
2019-03-04T19:20:32.944Z,60851.66
2019-03-04T19:22:59.168Z,60845.61
2019-03-04T19:25:25.406Z,60844.19
2019-03-04T19:27:51.634Z,60832.24
2019-03-04T19:30:17.890Z,60823.21
2019-03-04T19:32:44.181Z,60821.99
2019-03-04T19:35:51.719Z,60823.24
2019-03-04T19:38:17.962Z,60815.41
2019-03-04T19:40:44.251Z,60809.39
2019-03-04T19:43:10.475Z,60817.32
2019-03-04T19:45:37.886Z,60805.66
2019-03-04T19:48:04.979Z,60807.84
2019-03-04T19:50:31.329Z,60805.70
2019-03-04T19:52:57.551Z,60797.48
2019-03-04T19:55:23.791Z,60783.05
2019-03-04T19:57:50.035Z,60775.45
2019-03-04T20:00:36.325Z,60766.20
2019-03-04T20:05:56.712Z,60750.73
2019-03-04T20:08:22.935Z,60757.08
2019-03-04T20:10:49.181Z,60750.99
2019-03-04T20:13:15.540Z,60740.84
2019-03-04T20:15:41.860Z,60738.22
2019-03-04T20:18:08.102Z,60729.12
2019-03-04T20:20:34.339Z,60727.54
2019-03-04T20:23:00.590Z,60725.21
2019-03-04T20:26:08.136Z,60728.97
2019-03-04T20:28:34.402Z,60720.23
2019-03-04T20:31:00.625Z,60717.22
2019-03-04T20:33:26.867Z,60711.01
2019-03-04T20:35:53.103Z,60713.18
2019-03-04T20:39:00.649Z,60711.25
2019-03-04T20:41:26.992Z,60710.78
2019-03-04T20:43:53.237Z,60700.45
2019-03-04T20:46:19.466Z,60696.34
2019-03-04T20:48:45.715Z,60696.91
2019-03-04T20:51:11.935Z,60692.08
2019-03-04T20:53:38.171Z,60696.76
2019-03-04T20:56:04.412Z,60684.06
2019-03-04T20:58:30.687Z,60680.87
2019-03-04T21:00:56.931Z,60678.93
2019-03-04T21:03:23.269Z,60680.18
2019-03-04T21:05:49.599Z,60673.09
2019-03-04T21:08:15.835Z,60667.75
2019-03-04T21:10:42.067Z,60665.10
2019-03-04T21:13:35.002Z,60663.16
2019-03-04T21:15:56.228Z,60663.73
2019-03-04T21:18:22.484Z,60660.36
2019-03-04T21:21:30.011Z,60656.79
2019-03-04T21:23:56.271Z,60651.81
2019-03-04T21:36:17.031Z,60650.51
2019-03-04T21:38:43.390Z,60634.98
2019-03-04T21:41:49.111Z,60627.50
2019-03-04T21:44:56.659Z,60627.00
2019-03-04T21:51:16.547Z,60613.91
2019-03-04T21:54:03.059Z,60598.69
2019-03-04T21:57:10.579Z,60594.45
2019-03-04T21:59:36.860Z,60588.80
2019-03-04T22:05:23.363Z,60598.89
2019-03-04T22:07:49.604Z,60552.45
2019-03-04T22:12:53.368Z,60605.27
2019-03-04T22:15:19.707Z,60611.74
2019-03-04T22:20:59.964Z,60627.53
2019-03-04T22:23:26.193Z,60640.84
2019-03-04T22:26:01.537Z,60665.17
2019-03-04T22:28:20.579Z,60677.71
2019-03-04T22:30:46.858Z,60707.55
2019-03-04T22:33:13.100Z,60715.43
2019-03-04T22:35:39.346Z,60732.70
2019-03-04T22:38:05.580Z,60736.57
2019-03-04T22:40:31.826Z,60755.07
2019-03-04T22:42:58.056Z,60792.16
2019-03-04T22:45:24.311Z,60860.16
2019-03-04T22:48:31.850Z,60924.84
2019-03-04T22:50:58.228Z,60989.58
2019-03-04T22:53:24.459Z,61026.87
2019-03-04T22:55:50.709Z,61073.01
2019-03-04T22:58:27.707Z,61089.55
2019-03-04T23:01:17.457Z,61096.06
2019-03-04T23:03:43.695Z,61109.68
2019-03-04T23:06:49.463Z,61120.52
2019-03-04T23:09:56.991Z,61136.40
2019-03-04T23:13:04.528Z,61162.09
2019-03-04T23:15:30.778Z,61158.98
2019-03-04T23:17:57.007Z,61172.35
2019-03-04T23:20:23.252Z,61182.72
2019-03-04T23:22:49.475Z,61165.93
2019-03-04T23:25:15.710Z,61174.14
2019-03-04T23:27:41.935Z,61174.15
2019-03-04T23:30:49.474Z,61174.01
2019-03-04T23:33:15.709Z,61183.00
2019-03-04T23:35:41.935Z,61185.83
2019-03-04T23:38:08.157Z,61178.29
2019-03-04T23:40:34.407Z,61181.83
2019-03-04T23:43:00.632Z,61193.21
2019-03-04T23:45:26.863Z,61187.34
2019-03-04T23:47:53.091Z,61186.66
2019-03-04T23:51:00.630Z,61178.83
2019-03-04T23:53:26.859Z,61172.20
2019-03-04T23:55:53.193Z,61162.04
2019-03-04T23:58:19.427Z,61165.39
